createdAt,value
2023-01-03T00:00:51.203Z,4.50
2023-01-03T00:01:55.468Z,4.50
2023-01-03T00:02:58.084Z,4.50
2023-01-03T00:04:02.582Z,4.40
2023-01-03T00:05:06.883Z,4.50
2023-01-03T00:06:17.000Z,4.40
2023-01-03T00:07:34.230Z,4.40
2023-01-03T00:08:37.190Z,4.40
2023-01-03T00:09:40.739Z,4.40
2023-01-03T00:10:43.399Z,4.40
2023-01-03T00:12:07.732Z,4.40
2023-01-03T00:13:11.425Z,4.40
2023-01-03T00:14:18.202Z,4.30
2023-01-03T00:15:21.875Z,4.30
2023-01-03T00:16:24.574Z,4.30
2023-01-03T00:17:28.899Z,4.30
2023-01-03T00:18:31.592Z,4.30
2023-01-03T00:19:38.954Z,4.30
2023-01-03T00:20:41.490Z,4.30
2023-01-03T00:21:45.128Z,4.30
2023-01-03T00:22:49.152Z,4.30
2023-01-03T00:23:51.778Z,4.30
2023-01-03T00:24:55.608Z,4.30
2023-01-03T00:25:58.288Z,4.20
2023-01-03T00:27:02.259Z,4.20
2023-01-03T00:28:05.278Z,4.20
2023-01-03T00:29:09.535Z,4.20
2023-01-03T00:30:14.461Z,4.20
2023-01-03T00:31:20.443Z,4.20
2023-01-03T00:32:24.313Z,4.20
2023-01-03T00:33:27.072Z,4.20
2023-01-03T00:34:30.995Z,4.20
2023-01-03T00:35:33.557Z,4.20
2023-01-03T00:36:38.879Z,4.20
2023-01-03T00:37:44.721Z,4.10
2023-01-03T00:38:48.835Z,4.10
2023-01-03T00:39:52.643Z,4.10
2023-01-03T00:40:55.502Z,4.10
2023-01-03T00:41:59.230Z,4.10
2023-01-03T00:43:20.437Z,4.10
2023-01-03T00:44:24.353Z,4.10
2023-01-03T00:45:33.641Z,4.10
2023-01-03T00:46:39.175Z,4.10
2023-01-03T00:47:42.908Z,4.10
2023-01-03T00:48:46.822Z,4.10
2023-01-03T00:49:50.532Z,4.10
2023-01-03T00:50:53.565Z,4.00
2023-01-03T00:51:57.422Z,4.10
2023-01-03T00:53:00.426Z,4.10
2023-01-03T00:54:06.728Z,4.00
2023-01-03T00:55:11.470Z,4.10
2023-01-03T00:56:16.521Z,4.00
2023-01-03T00:57:20.324Z,4.00
2023-01-03T00:58:23.618Z,4.00
2023-01-03T00:59:28.074Z,4.00
2023-01-03T01:00:32.450Z,4.00
2023-01-03T01:01:46.161Z,4.00
2023-01-03T01:02:54.120Z,4.00
2023-01-03T01:04:01.783Z,4.00
2023-01-03T01:05:05.083Z,4.00
2023-01-03T01:06:17.648Z,4.00
2023-01-03T01:07:20.356Z,4.00
2023-01-03T01:08:24.042Z,4.00
2023-01-03T01:09:29.781Z,4.00
2023-01-03T01:10:32.511Z,4.00
2023-01-03T01:11:36.339Z,4.00
2023-01-03T01:12:39.127Z,4.00
2023-01-03T01:13:44.549Z,3.90
2023-01-03T01:14:47.119Z,3.90
2023-01-03T01:15:52.246Z,3.90
2023-01-03T01:16:59.406Z,3.90
2023-01-03T01:18:02.030Z,3.90
2023-01-03T01:19:05.632Z,3.90
2023-01-03T01:20:09.595Z,3.90
2023-01-03T01:21:16.003Z,3.90
2023-01-03T01:22:18.690Z,3.90
2023-01-03T01:23:22.386Z,3.90
2023-01-03T01:24:26.056Z,3.90
2023-01-03T01:25:29.692Z,3.90
2023-01-03T01:26:32.288Z,3.90
2023-01-03T01:27:35.838Z,3.90
2023-01-03T01:28:38.958Z,3.80
2023-01-03T01:29:42.715Z,3.80
2023-01-03T01:30:45.502Z,3.80
2023-01-03T01:31:51.434Z,3.80
2023-01-03T01:32:54.686Z,3.80
2023-01-03T01:33:59.022Z,3.80
2023-01-03T01:35:01.768Z,3.80
2023-01-03T01:36:10.547Z,3.80
2023-01-03T01:37:14.620Z,3.80
2023-01-03T01:38:17.186Z,3.80
2023-01-03T01:39:24.732Z,3.80
2023-01-03T01:40:27.431Z,3.80
2023-01-03T01:41:52.352Z,3.70
2023-01-03T01:43:13.424Z,3.70
2023-01-03T01:44:53.256Z,3.70
2023-01-03T01:45:56.476Z,3.70
2023-01-03T01:47:01.719Z,3.70
2023-01-03T01:48:11.547Z,3.70
2023-01-03T01:49:22.789Z,3.70
2023-01-03T01:50:31.485Z,3.70
2023-01-03T01:51:36.214Z,3.70
2023-01-03T01:52:47.019Z,3.70
2023-01-03T01:53:52.745Z,3.70
2023-01-03T01:54:59.017Z,3.60
2023-01-03T01:56:13.195Z,3.60
2023-01-03T01:57:20.166Z,3.60
2023-01-03T01:58:29.957Z,3.60
2023-01-03T01:59:33.544Z,3.60
2023-01-03T02:00:38.842Z,3.60
2023-01-03T02:01:45.507Z,3.60
2023-01-03T02:02:54.213Z,3.60
2023-01-03T02:04:04.066Z,3.60
2023-01-03T02:05:10.224Z,3.60
2023-01-03T02:06:17.119Z,3.60
2023-01-03T02:07:23.479Z,3.60
2023-01-03T02:08:26.394Z,3.60
2023-01-03T02:09:32.286Z,3.50
2023-01-03T02:10:57.550Z,3.50
2023-01-03T02:12:29.205Z,3.50
2023-01-03T02:13:50.420Z,3.50
2023-01-03T02:15:08.884Z,3.50
2023-01-03T02:16:40.693Z,3.50
2023-01-03T02:17:58.977Z,3.50
2023-01-03T02:19:25.352Z,3.50
2023-01-03T02:20:54.541Z,3.40
2023-01-03T02:22:41.599Z,3.40
2023-01-03T02:24:33.787Z,3.40
2023-01-03T02:26:32.568Z,3.40
2023-01-03T02:28:30.421Z,3.40
2023-01-03T02:30:10.704Z,3.30
2023-01-03T02:31:16.807Z,3.30
2023-01-03T02:32:36.533Z,3.30
2023-01-03T02:33:47.355Z,3.30
2023-01-03T02:35:00.221Z,3.30
2023-01-03T02:36:15.681Z,3.30
2023-01-03T02:37:30.836Z,3.20
2023-01-03T02:38:48.979Z,3.20
2023-01-03T02:40:01.758Z,3.20
2023-01-03T02:41:13.930Z,3.20
2023-01-03T02:42:43.903Z,3.20
2023-01-03T02:43:56.510Z,3.20
2023-01-03T02:45:09.439Z,3.20
2023-01-03T02:46:18.978Z,3.10
2023-01-03T02:47:25.847Z,3.10
2023-01-03T02:48:41.155Z,3.10
2023-01-03T02:49:49.034Z,3.10
2023-01-03T02:50:58.883Z,3.10
2023-01-03T02:52:06.528Z,3.10
2023-01-03T02:53:12.821Z,3.10
2023-01-03T02:54:21.888Z,3.10
2023-01-03T02:55:26.977Z,3.10
2023-01-03T02:56:36.780Z,3.10
2023-01-03T02:57:44.991Z,3.20
2023-01-03T02:58:54.734Z,3.20
2023-01-03T03:00:03.634Z,3.20
2023-01-03T03:01:12.510Z,3.20
2023-01-03T03:02:15.784Z,3.30
2023-01-03T03:03:25.509Z,3.30
2023-01-03T03:04:29.760Z,3.30
2023-01-03T03:05:38.990Z,3.40
2023-01-03T03:06:49.845Z,3.40
2023-01-03T03:07:53.730Z,3.40
2023-01-03T03:08:56.433Z,3.50
2023-01-03T03:10:17.964Z,3.50
2023-01-03T03:11:41.003Z,3.60
2023-01-03T03:13:06.001Z,3.60
2023-01-03T03:14:17.857Z,3.70
2023-01-03T03:15:23.924Z,3.70
2023-01-03T03:16:51.099Z,3.70
2023-01-03T03:18:02.194Z,3.80
2023-01-03T03:19:52.410Z,3.80
2023-01-03T03:21:18.119Z,3.90
2023-01-03T03:22:49.226Z,3.90
2023-01-03T03:24:12.187Z,3.90
2023-01-03T03:25:23.131Z,4.00
2023-01-03T03:26:33.372Z,4.00
2023-01-03T03:27:58.212Z,4.00
2023-01-03T03:29:07.605Z,4.00
2023-01-03T03:30:15.510Z,4.10
2023-01-03T03:31:24.948Z,4.10
2023-01-03T03:32:32.624Z,4.10
2023-01-03T03:33:42.843Z,4.10
2023-01-03T03:34:46.965Z,4.10
2023-01-03T03:35:58.394Z,4.10
2023-01-03T03:37:09.529Z,4.20
2023-01-03T03:38:39.083Z,4.20
2023-01-03T03:40:10.027Z,4.20
2023-01-03T03:41:42.391Z,4.20
2023-01-03T03:43:11.377Z,4.20
2023-01-03T03:44:42.892Z,4.20
2023-01-03T03:45:55.681Z,4.20
2023-01-03T03:47:07.790Z,4.20
2023-01-03T03:48:21.143Z,4.20
2023-01-03T03:49:39.375Z,4.20
2023-01-03T03:50:48.179Z,4.20
2023-01-03T03:51:55.234Z,4.20
2023-01-03T03:53:02.469Z,4.20
2023-01-03T03:54:11.968Z,4.10
2023-01-03T03:55:19.099Z,4.20
2023-01-03T03:56:31.763Z,4.10
2023-01-03T03:57:40.763Z,4.10
2023-01-03T03:58:48.164Z,4.10
2023-01-03T03:59:57.392Z,4.10
2023-01-03T04:01:01.116Z,4.10
2023-01-03T04:02:08.448Z,4.10
2023-01-03T04:03:14.293Z,4.10
2023-01-03T04:04:24.320Z,4.10
2023-01-03T04:05:33.232Z,4.10
2023-01-03T04:06:40.882Z,4.10
2023-01-03T04:07:44.515Z,4.10
2023-01-03T04:08:47.507Z,4.10
2023-01-03T04:09:51.434Z,4.10
2023-01-03T04:11:05.931Z,4.00
2023-01-03T04:12:09.775Z,4.00
2023-01-03T04:13:12.599Z,4.00
2023-01-03T04:14:16.354Z,4.00
2023-01-03T04:15:20.609Z,4.00
2023-01-03T04:16:23.138Z,4.00
2023-01-03T04:17:26.823Z,4.00
2023-01-03T04:18:31.381Z,4.00
2023-01-03T04:19:35.000Z,4.00
2023-01-03T04:20:37.638Z,4.00
2023-01-03T04:21:41.246Z,4.00
2023-01-03T04:22:44.011Z,4.00
2023-01-03T04:23:47.845Z,3.90
2023-01-03T04:24:50.735Z,3.90
2023-01-03T04:25:54.538Z,3.90
2023-01-03T04:26:57.248Z,3.90
2023-01-03T04:28:00.882Z,3.90
2023-01-03T04:29:03.736Z,3.90
2023-01-03T04:30:08.757Z,3.90
2023-01-03T04:31:11.439Z,3.90
2023-01-03T04:32:15.207Z,3.90
2023-01-03T04:33:17.882Z,4.00
2023-01-03T04:34:23.187Z,3.90
2023-01-03T04:35:25.844Z,3.90
2023-01-03T04:36:29.450Z,3.90
2023-01-03T04:37:32.502Z,3.90
2023-01-03T04:38:36.141Z,3.90
2023-01-03T04:39:38.743Z,3.90
2023-01-03T04:40:42.284Z,3.90
2023-01-03T04:41:44.976Z,3.90
2023-01-03T04:43:05.987Z,3.90
2023-01-03T04:44:11.469Z,3.90
2023-01-03T04:45:14.062Z,3.90
2023-01-03T04:46:16.701Z,3.90
2023-01-03T04:47:20.880Z,3.90
2023-01-03T04:48:23.600Z,3.90
2023-01-03T04:49:28.532Z,3.90
2023-01-03T04:50:31.757Z,3.90
2023-01-03T04:51:36.335Z,3.90
2023-01-03T04:52:39.045Z,3.90
2023-01-03T04:53:42.684Z,3.90
2023-01-03T04:54:45.354Z,3.90
2023-01-03T04:55:49.755Z,3.80
2023-01-03T04:56:52.419Z,3.80
2023-01-03T04:57:56.042Z,3.80
2023-01-03T04:58:59.633Z,3.80
2023-01-03T05:00:03.927Z,3.80
2023-01-03T05:01:08.383Z,3.80
2023-01-03T05:02:12.353Z,3.80
2023-01-03T05:03:15.220Z,3.80
2023-01-03T05:04:19.237Z,3.70
2023-01-03T05:05:23.208Z,3.70
2023-01-03T05:06:27.883Z,3.70
2023-01-03T05:07:30.833Z,3.70
2023-01-03T05:08:34.829Z,3.70
2023-01-03T05:09:37.416Z,3.70
2023-01-03T05:10:42.321Z,3.70
2023-01-03T05:11:44.890Z,3.60
2023-01-03T05:12:59.969Z,3.70
2023-01-03T05:14:13.997Z,3.70
2023-01-03T05:15:17.123Z,3.60
2023-01-03T05:16:20.950Z,3.60
2023-01-03T05:17:23.621Z,3.60
2023-01-03T05:18:27.127Z,3.60
2023-01-03T05:19:30.928Z,3.60
2023-01-03T05:20:55.669Z,3.60
2023-01-03T05:22:16.424Z,3.60
2023-01-03T05:23:37.515Z,3.60
2023-01-03T05:24:58.362Z,3.60
2023-01-03T05:26:05.844Z,3.50
2023-01-03T05:27:08.537Z,3.50
2023-01-03T05:28:17.101Z,3.60
2023-01-03T05:29:23.026Z,3.50
2023-01-03T05:30:25.832Z,3.50
2023-01-03T05:31:29.484Z,3.50
2023-01-03T05:32:32.211Z,3.50
2023-01-03T05:33:35.731Z,3.50
2023-01-03T05:34:39.490Z,3.50
2023-01-03T05:35:47.443Z,3.50
2023-01-03T05:36:51.192Z,3.50
2023-01-03T05:37:53.843Z,3.50
2023-01-03T05:38:57.652Z,3.50
2023-01-03T05:40:00.211Z,3.50
2023-01-03T05:41:04.394Z,3.50
2023-01-03T05:42:07.192Z,3.50
2023-01-03T05:43:11.792Z,3.50
2023-01-03T05:44:14.420Z,3.50
2023-01-03T05:45:18.164Z,3.50
2023-01-03T05:46:20.990Z,3.40
2023-01-03T05:47:25.733Z,3.50
2023-01-03T05:48:28.672Z,3.40
2023-01-03T05:49:33.519Z,3.40
2023-01-03T05:50:36.334Z,3.40
2023-01-03T05:51:41.686Z,3.40
2023-01-03T05:52:44.389Z,3.40
2023-01-03T05:53:48.147Z,3.40
2023-01-03T05:54:50.783Z,3.40
2023-01-03T05:55:54.751Z,3.40
2023-01-03T05:56:57.438Z,3.40
2023-01-03T05:58:01.123Z,3.40
2023-01-03T05:59:04.336Z,3.40
2023-01-03T06:00:10.161Z,3.40
2023-01-03T06:01:15.023Z,3.40
2023-01-03T06:02:18.862Z,3.40
2023-01-03T06:03:21.448Z,3.40
2023-01-03T06:04:25.116Z,3.40
2023-01-03T06:05:27.855Z,3.40
2023-01-03T06:06:31.557Z,3.40
2023-01-03T06:07:37.334Z,3.40
2023-01-03T06:08:41.802Z,3.40
2023-01-03T06:09:44.342Z,3.40
2023-01-03T06:10:47.856Z,3.40
2023-01-03T06:11:50.647Z,3.40
2023-01-03T06:12:54.282Z,3.40
2023-01-03T06:13:56.828Z,3.40
2023-01-03T06:15:00.875Z,3.40
2023-01-03T06:16:24.925Z,3.40
2023-01-03T06:17:46.260Z,3.40
2023-01-03T06:18:48.782Z,3.40
2023-01-03T06:19:52.309Z,3.40
2023-01-03T06:20:54.861Z,3.40
2023-01-03T06:21:58.645Z,3.40
2023-01-03T06:23:02.569Z,3.50
2023-01-03T06:24:07.155Z,3.50
2023-01-03T06:25:11.337Z,3.50
2023-01-03T06:26:15.970Z,3.50
2023-01-03T06:27:18.552Z,3.50
2023-01-03T06:28:22.429Z,3.50
2023-01-03T06:29:25.115Z,3.50
2023-01-03T06:30:28.817Z,3.60
2023-01-03T06:31:31.696Z,3.60
2023-01-03T06:32:35.307Z,3.60
2023-01-03T06:33:38.038Z,3.60
2023-01-03T06:34:41.734Z,3.60
2023-01-03T06:35:44.413Z,3.70
2023-01-03T06:36:48.163Z,3.70
2023-01-03T06:37:50.836Z,3.70
2023-01-03T06:38:55.985Z,3.70
2023-01-03T06:39:58.530Z,3.80
2023-01-03T06:41:02.425Z,3.80
2023-01-03T06:42:20.485Z,3.80
2023-01-03T06:43:24.305Z,3.80
2023-01-03T06:44:27.978Z,3.90
2023-01-03T06:45:49.102Z,3.90
2023-01-03T06:47:10.102Z,3.90
2023-01-03T06:48:31.711Z,3.90
2023-01-03T06:49:53.038Z,4.00
2023-01-03T06:51:29.117Z,4.00
2023-01-03T06:52:55.823Z,4.00
2023-01-03T06:54:00.796Z,4.10
2023-01-03T06:55:05.219Z,4.10
2023-01-03T06:56:09.063Z,4.10
2023-01-03T06:57:26.747Z,4.10
2023-01-03T06:58:30.374Z,4.10
2023-01-03T06:59:34.119Z,4.10
2023-01-03T07:00:38.335Z,4.20
2023-01-03T07:01:42.218Z,4.20
2023-01-03T07:02:45.251Z,4.20
2023-01-03T07:03:49.500Z,4.20
2023-01-03T07:04:52.387Z,4.20
2023-01-03T07:05:56.194Z,4.30
2023-01-03T07:06:59.841Z,4.30
2023-01-03T07:08:02.485Z,4.30
2023-01-03T07:09:08.025Z,4.30
2023-01-03T07:10:11.893Z,4.30
2023-01-03T07:11:14.455Z,4.30
2023-01-03T07:12:38.265Z,4.40
2023-01-03T07:14:01.932Z,4.40
2023-01-03T07:15:06.935Z,4.40
2023-01-03T07:16:15.207Z,4.40
2023-01-03T07:17:18.963Z,4.40
2023-01-03T07:18:22.913Z,4.40
2023-01-03T07:19:27.355Z,4.40
2023-01-03T07:20:30.131Z,4.50
2023-01-03T07:21:36.568Z,4.50
2023-01-03T07:22:39.260Z,4.50
2023-01-03T07:23:43.917Z,4.50
2023-01-03T07:24:48.140Z,4.50
2023-01-03T07:25:55.970Z,4.50
2023-01-03T07:27:00.091Z,4.50
2023-01-03T07:28:06.510Z,4.50
2023-01-03T07:29:12.894Z,4.60
2023-01-03T07:30:15.808Z,4.60
2023-01-03T07:31:19.865Z,4.60
2023-01-03T07:32:22.740Z,4.60
2023-01-03T07:33:26.525Z,4.60
2023-01-03T07:34:29.283Z,4.60
2023-01-03T07:35:33.783Z,4.60
2023-01-03T07:36:37.854Z,4.60
2023-01-03T07:37:40.652Z,4.60
2023-01-03T07:38:46.822Z,4.60
2023-01-03T07:39:50.888Z,4.60
2023-01-03T07:40:57.009Z,4.70
2023-01-03T07:42:18.071Z,4.70
2023-01-03T07:43:38.895Z,4.70
2023-01-03T07:44:42.724Z,4.70
2023-01-03T07:45:47.592Z,4.70
2023-01-03T07:46:51.338Z,4.70
2023-01-03T07:47:54.588Z,4.70
2023-01-03T07:49:07.873Z,4.70
2023-01-03T07:50:13.390Z,4.70
2023-01-03T07:51:19.671Z,4.80
2023-01-03T07:52:22.619Z,4.80
2023-01-03T07:53:26.730Z,4.80
2023-01-03T07:54:30.354Z,4.80
2023-01-03T07:55:36.231Z,4.80
2023-01-03T07:56:39.968Z,4.80
2023-01-03T07:57:42.735Z,4.80
2023-01-03T07:58:46.949Z,4.80
2023-01-03T07:59:49.615Z,4.90
2023-01-03T08:00:53.346Z,4.90
2023-01-03T08:01:57.224Z,4.90
2023-01-03T08:03:00.130Z,4.90
2023-01-03T08:04:04.115Z,4.90
2023-01-03T08:05:07.960Z,4.90
2023-01-03T08:06:14.045Z,4.90
2023-01-03T08:07:16.991Z,4.90
2023-01-03T08:08:20.691Z,4.90
2023-01-03T08:09:41.828Z,4.90
2023-01-03T08:11:04.195Z,4.90
2023-01-03T08:12:26.852Z,5.00
2023-01-03T08:13:30.492Z,5.00
2023-01-03T08:14:33.114Z,5.00
2023-01-03T08:15:36.835Z,5.00
2023-01-03T08:16:39.549Z,5.00
2023-01-03T08:17:43.262Z,5.00
2023-01-03T08:18:47.535Z,5.00
2023-01-03T08:19:50.245Z,5.00
2023-01-03T08:20:57.460Z,5.00
2023-01-03T08:22:00.207Z,5.00
2023-01-03T08:23:07.231Z,5.00
2023-01-03T08:24:11.361Z,5.10
2023-01-03T08:25:17.860Z,5.10
2023-01-03T08:26:23.046Z,5.10
2023-01-03T08:27:28.558Z,5.10
2023-01-03T08:28:32.926Z,5.10
2023-01-03T08:29:39.878Z,5.10
2023-01-03T08:30:46.843Z,5.10
2023-01-03T08:31:56.142Z,5.20
2023-01-03T08:33:03.649Z,5.20
2023-01-03T08:34:19.603Z,5.20
2023-01-03T08:35:33.275Z,5.30
2023-01-03T08:36:42.514Z,5.30
2023-01-03T08:37:48.574Z,5.30
2023-01-03T08:38:58.967Z,5.30
2023-01-03T08:40:05.457Z,5.40
2023-01-03T08:41:10.901Z,5.40
2023-01-03T08:42:17.317Z,5.40
2023-01-03T08:43:21.837Z,5.40
2023-01-03T08:44:28.287Z,5.40
2023-01-03T08:45:32.469Z,5.40
2023-01-03T08:46:37.383Z,5.50
2023-01-03T08:47:42.614Z,5.50
2023-01-03T08:48:47.063Z,5.60
2023-01-03T08:49:49.876Z,5.60
2023-01-03T08:50:56.437Z,5.60
2023-01-03T08:51:59.216Z,5.60
2023-01-03T08:53:05.265Z,5.70
2023-01-03T08:54:09.124Z,5.70
2023-01-03T08:55:12.105Z,5.70
2023-01-03T08:56:51.448Z,5.80
2023-01-03T08:57:56.800Z,5.80
2023-01-03T08:58:59.668Z,5.80
2023-01-03T09:00:05.813Z,5.80
2023-01-03T09:01:11.516Z,5.80
2023-01-03T09:02:15.871Z,5.90
2023-01-03T09:03:19.846Z,5.90
2023-01-03T09:04:22.958Z,5.90
2023-01-03T09:05:26.640Z,5.90
2023-01-03T09:06:31.122Z,5.90
2023-01-03T09:07:33.922Z,5.90
2023-01-03T09:08:37.840Z,5.90
2023-01-03T09:09:40.607Z,5.90
2023-01-03T09:10:47.635Z,5.90
2023-01-03T09:11:51.837Z,5.90
2023-01-03T09:12:57.301Z,5.90
2023-01-03T09:14:01.048Z,5.90
2023-01-03T09:15:05.773Z,5.90
2023-01-03T09:16:13.258Z,5.90
2023-01-03T09:17:16.392Z,5.90
2023-01-03T09:18:20.357Z,5.90
2023-01-03T09:19:23.717Z,5.90
2023-01-03T09:20:27.404Z,5.90
2023-01-03T09:21:31.159Z,5.90
2023-01-03T09:22:35.327Z,5.90
2023-01-03T09:23:38.232Z,6.00
2023-01-03T09:24:42.131Z,6.00
2023-01-03T09:25:46.533Z,6.00
2023-01-03T09:26:54.398Z,6.00
2023-01-03T09:28:01.272Z,6.00
2023-01-03T09:29:04.803Z,6.00
2023-01-03T09:30:09.920Z,6.00
2023-01-03T09:31:12.728Z,6.00
2023-01-03T09:32:16.645Z,6.00
2023-01-03T09:33:20.677Z,6.00
2023-01-03T09:34:23.671Z,6.00
2023-01-03T09:35:27.407Z,6.10
2023-01-03T09:36:31.255Z,6.10
2023-01-03T09:37:35.184Z,6.10
2023-01-03T09:38:39.152Z,6.10
2023-01-03T09:39:43.459Z,6.10
2023-01-03T09:40:47.641Z,6.10
2023-01-03T09:42:11.634Z,6.10
2023-01-03T09:43:24.985Z,6.10
2023-01-03T09:44:30.341Z,6.10
2023-01-03T09:45:36.078Z,6.10
2023-01-03T09:46:40.087Z,6.20
2023-01-03T09:47:43.610Z,6.20
2023-01-03T09:48:48.471Z,6.20
2023-01-03T09:50:26.581Z,6.20
2023-01-03T09:51:39.723Z,6.20
2023-01-03T09:53:03.899Z,6.20
2023-01-03T09:54:30.927Z,6.30
2023-01-03T09:56:09.068Z,6.30
2023-01-03T09:57:36.546Z,6.30
2023-01-03T09:59:01.395Z,6.30
2023-01-03T10:00:32.471Z,6.30
2023-01-03T10:02:05.912Z,6.40
2023-01-03T10:03:50.890Z,6.40
2023-01-03T10:05:22.660Z,6.40
2023-01-03T10:06:40.990Z,6.40
2023-01-03T10:08:12.891Z,6.40
2023-01-03T10:09:33.217Z,6.40
2023-01-03T10:10:48.958Z,6.40
2023-01-03T10:12:09.553Z,6.50
2023-01-03T10:13:28.617Z,6.50
2023-01-03T10:14:51.574Z,6.50
2023-01-03T10:16:06.699Z,6.50
2023-01-03T10:17:24.038Z,6.50
2023-01-03T10:19:18.544Z,6.50
2023-01-03T10:20:37.278Z,6.50
2023-01-03T10:21:53.445Z,6.50
2023-01-03T10:22:58.409Z,6.60
2023-01-03T10:24:02.581Z,6.60
2023-01-03T10:25:14.751Z,6.60
2023-01-03T10:26:20.307Z,6.60
2023-01-03T10:27:28.497Z,6.60
2023-01-03T10:28:38.500Z,6.70
2023-01-03T10:29:43.245Z,6.70
2023-01-03T10:31:10.360Z,6.70
2023-01-03T10:32:34.652Z,6.70
2023-01-03T10:33:45.513Z,6.70
2023-01-03T10:35:16.695Z,6.70
2023-01-03T10:36:23.513Z,6.80
2023-01-03T10:37:27.528Z,6.80
2023-01-03T10:38:34.250Z,6.80
2023-01-03T10:39:42.499Z,6.80
2023-01-03T10:40:50.309Z,6.80
2023-01-03T10:41:58.392Z,6.90
2023-01-03T10:43:17.537Z,6.90
2023-01-03T10:44:27.200Z,6.90
2023-01-03T10:45:40.756Z,6.90
2023-01-03T10:46:53.787Z,6.90
2023-01-03T10:48:04.228Z,6.90
2023-01-03T10:49:28.513Z,7.00
2023-01-03T10:50:39.708Z,7.00
2023-01-03T10:51:54.751Z,7.00
2023-01-03T10:53:01.728Z,7.00
2023-01-03T10:54:21.234Z,7.10
2023-01-03T10:55:26.720Z,7.10
2023-01-03T10:56:32.521Z,7.10
2023-01-03T10:57:40.455Z,7.10
2023-01-03T10:58:44.380Z,7.10
2023-01-03T10:59:51.343Z,7.20
2023-01-03T11:01:19.265Z,7.20
2023-01-03T11:02:23.594Z,7.20
2023-01-03T11:03:29.436Z,7.20
2023-01-03T11:04:33.987Z,7.20
2023-01-03T11:05:38.591Z,7.20
2023-01-03T11:07:05.033Z,7.20
2023-01-03T11:08:20.794Z,7.20
2023-01-03T11:09:24.882Z,7.30
2023-01-03T11:10:37.632Z,7.30
2023-01-03T11:11:44.885Z,7.30
2023-01-03T11:12:49.314Z,7.30
2023-01-03T11:13:52.033Z,7.30
2023-01-03T11:14:58.243Z,7.30
2023-01-03T11:16:12.611Z,7.30
2023-01-03T11:17:19.518Z,7.30
2023-01-03T11:18:22.424Z,7.40
2023-01-03T11:19:30.153Z,7.40
2023-01-03T11:20:42.642Z,7.40
2023-01-03T11:21:55.529Z,7.40
2023-01-03T11:23:09.218Z,7.40
2023-01-03T11:24:32.385Z,7.40
2023-01-03T11:25:44.650Z,7.40
2023-01-03T11:27:01.356Z,7.50
2023-01-03T11:28:50.042Z,7.50
2023-01-03T11:30:23.431Z,7.50
2023-01-03T11:31:43.867Z,7.50
2023-01-03T11:33:10.112Z,7.50
2023-01-03T11:35:11.597Z,7.50
2023-01-03T11:36:30.487Z,7.50
2023-01-03T11:37:46.644Z,7.50
2023-01-03T11:39:04.861Z,7.60
2023-01-03T11:40:21.871Z,7.60
2023-01-03T11:41:59.318Z,7.60
2023-01-03T11:43:20.395Z,7.60
2023-01-03T11:45:04.606Z,7.60
2023-01-03T11:46:31.738Z,7.70
2023-01-03T11:47:47.704Z,7.70
2023-01-03T11:49:22.465Z,7.70
2023-01-03T11:50:37.335Z,7.70
2023-01-03T11:51:53.879Z,7.70
2023-01-03T11:53:04.305Z,7.70
2023-01-03T11:54:28.496Z,7.70
2023-01-03T11:56:05.058Z,7.70
2023-01-03T11:57:22.908Z,7.70
2023-01-03T11:59:08.301Z,7.70
2023-01-03T12:00:22.870Z,7.80
2023-01-03T12:01:44.798Z,7.80
2023-01-03T12:03:06.861Z,7.80
2023-01-03T12:04:27.842Z,7.80
2023-01-03T12:05:50.466Z,7.90
2023-01-03T12:08:52.963Z,7.90
2023-01-03T12:10:04.560Z,7.90
2023-01-03T12:11:26.575Z,8.00
2023-01-03T12:13:07.825Z,8.00
2023-01-03T12:14:20.763Z,8.00
2023-01-03T12:15:33.262Z,8.00
2023-01-03T12:16:43.247Z,8.00
2023-01-03T12:17:52.717Z,8.00
2023-01-03T12:19:08.556Z,8.00
2023-01-03T12:20:24.355Z,8.00
2023-01-03T12:21:36.719Z,8.00
2023-01-03T12:22:46.940Z,8.10
2023-01-03T12:23:59.729Z,8.10
2023-01-03T12:25:15.902Z,8.10
2023-01-03T12:26:20.344Z,8.10
2023-01-03T12:27:30.326Z,8.10
2023-01-03T12:28:40.956Z,8.10
2023-01-03T12:30:00.416Z,8.10
2023-01-03T12:31:13.328Z,8.10
2023-01-03T12:32:27.051Z,8.10
2023-01-03T12:33:43.000Z,8.20
2023-01-03T12:34:57.628Z,8.20
2023-01-03T12:36:07.297Z,8.20
2023-01-03T12:37:18.519Z,8.30
2023-01-03T12:38:29.734Z,8.30
2023-01-03T12:39:44.677Z,8.30
2023-01-03T12:40:54.990Z,8.30
2023-01-03T12:42:06.074Z,8.30
2023-01-03T12:43:18.074Z,8.30
2023-01-03T12:44:27.305Z,8.30
2023-01-03T12:45:41.013Z,8.30
2023-01-03T12:46:50.607Z,8.30
2023-01-03T12:48:00.620Z,8.30
2023-01-03T12:49:11.587Z,8.30
2023-01-03T12:50:22.831Z,8.30
2023-01-03T12:51:26.058Z,8.30
2023-01-03T12:52:33.286Z,8.30
2023-01-03T12:53:43.546Z,8.30
2023-01-03T12:54:58.940Z,8.30
2023-01-03T12:56:33.863Z,8.30
2023-01-03T12:58:01.299Z,8.30
2023-01-03T12:59:19.624Z,8.30
2023-01-03T13:00:54.852Z,8.30
2023-01-03T13:02:24.232Z,8.30
2023-01-03T13:03:40.108Z,8.30
2023-01-03T13:04:45.641Z,8.30
2023-01-03T13:06:06.002Z,8.30
2023-01-03T13:07:20.607Z,8.40
2023-01-03T13:08:35.844Z,8.40
2023-01-03T13:09:44.853Z,8.40
2023-01-03T13:10:53.767Z,8.40
2023-01-03T13:12:08.687Z,8.40
2023-01-03T13:13:17.590Z,8.40
2023-01-03T13:14:24.884Z,8.40
2023-01-03T13:15:36.190Z,8.40
2023-01-03T13:16:47.666Z,8.40
2023-01-03T13:17:51.315Z,8.40
2023-01-03T13:18:55.605Z,8.40
2023-01-03T13:20:01.634Z,8.40
2023-01-03T13:22:07.780Z,8.50
2023-01-03T13:23:35.347Z,8.50
2023-01-03T13:24:43.840Z,8.60
2023-01-03T13:26:10.313Z,8.60
2023-01-03T13:27:37.751Z,8.60
2023-01-03T13:28:40.935Z,8.70
2023-01-03T13:29:55.427Z,8.70
2023-01-03T13:31:41.752Z,8.70
2023-01-03T13:33:01.924Z,8.80
2023-01-03T13:34:35.786Z,8.80
2023-01-03T13:36:01.467Z,8.80
2023-01-03T13:37:20.204Z,8.90
2023-01-03T13:38:32.116Z,8.90
2023-01-03T13:39:45.502Z,8.90
2023-01-03T13:41:17.171Z,8.90
2023-01-03T13:42:22.916Z,9.00
2023-01-03T13:43:39.557Z,9.00
2023-01-03T13:44:43.921Z,9.00
2023-01-03T13:46:02.070Z,9.10
2023-01-03T13:47:05.239Z,9.10
2023-01-03T13:48:19.539Z,9.10
2023-01-03T13:49:26.908Z,9.10
2023-01-03T13:50:33.713Z,9.20
2023-01-03T13:51:55.101Z,9.20
2023-01-03T13:53:02.378Z,9.20
2023-01-03T13:54:55.271Z,9.20
2023-01-03T13:56:01.379Z,9.20
2023-01-03T13:57:22.907Z,9.10
2023-01-03T13:58:41.403Z,9.10
2023-01-03T13:59:47.508Z,9.10
2023-01-03T14:00:50.874Z,9.10
2023-01-03T14:02:18.978Z,9.10
2023-01-03T14:03:56.213Z,9.00
2023-01-03T14:05:33.246Z,9.00
2023-01-03T14:07:14.467Z,8.90
2023-01-03T14:08:44.469Z,8.90
2023-01-03T14:10:19.830Z,8.80
2023-01-03T14:11:49.892Z,8.80
2023-01-03T14:13:42.372Z,8.80
2023-01-03T14:14:54.854Z,8.70
2023-01-03T14:16:27.432Z,8.70
2023-01-03T14:17:35.296Z,8.70
2023-01-03T14:18:40.296Z,8.70
2023-01-03T14:19:52.032Z,8.70
2023-01-03T14:20:59.109Z,8.60
2023-01-03T14:22:27.484Z,8.60
2023-01-03T14:23:59.058Z,8.60
2023-01-03T14:24:57.770Z,8.60
2023-01-03T14:26:18.964Z,8.60
2023-01-03T14:27:27.576Z,8.60
2023-01-03T14:28:33.772Z,8.60
2023-01-03T14:29:42.537Z,8.60
2023-01-03T14:30:46.689Z,8.60
2023-01-03T14:31:55.998Z,8.60
2023-01-03T14:33:00.666Z,8.60
2023-01-03T14:34:05.643Z,8.60
2023-01-03T14:35:35.730Z,8.60
2023-01-03T14:36:46.474Z,8.60
2023-01-03T14:37:50.191Z,8.60
2023-01-03T14:38:56.242Z,8.60
2023-01-03T14:40:03.215Z,8.60
2023-01-03T14:41:06.617Z,8.60
2023-01-03T14:42:17.499Z,8.60
2023-01-03T14:43:21.724Z,8.60
2023-01-03T14:44:26.098Z,8.60
2023-01-03T14:45:31.517Z,8.60
2023-01-03T14:46:35.347Z,8.50
2023-01-03T14:47:41.687Z,8.50
2023-01-03T14:48:48.540Z,8.50
2023-01-03T14:49:54.610Z,8.50
2023-01-03T14:51:02.882Z,8.50
2023-01-03T14:52:09.819Z,8.50
2023-01-03T14:53:14.991Z,8.40
2023-01-03T14:54:20.338Z,8.40
2023-01-03T14:55:28.947Z,8.40
2023-01-03T14:56:34.152Z,8.40
2023-01-03T14:57:41.648Z,8.40
2023-01-03T14:58:47.767Z,8.40
2023-01-03T14:59:52.940Z,8.40
2023-01-03T15:01:00.333Z,8.30
2023-01-03T15:02:05.452Z,8.30
2023-01-03T15:03:12.901Z,8.30
2023-01-03T15:04:18.814Z,8.30
2023-01-03T15:05:30.014Z,8.30
2023-01-03T15:06:34.495Z,8.30
2023-01-03T15:07:43.651Z,8.30
2023-01-03T15:08:50.016Z,8.30
2023-01-03T15:10:08.630Z,8.30
2023-01-03T15:11:13.251Z,8.30
2023-01-03T15:12:17.386Z,8.30
2023-01-03T15:13:25.056Z,8.30
2023-01-03T15:14:32.473Z,8.20
2023-01-03T15:15:40.957Z,8.30
2023-01-03T15:16:46.436Z,8.20
2023-01-03T15:17:56.404Z,8.30
2023-01-03T15:19:13.968Z,8.20
2023-01-03T15:20:22.441Z,8.20
2023-01-03T15:21:26.368Z,8.20
2023-01-03T15:22:40.378Z,8.20
2023-01-03T15:23:46.108Z,8.20
2023-01-03T15:24:54.928Z,8.20
2023-01-03T15:26:00.561Z,8.20
2023-01-03T15:27:24.788Z,8.20
2023-01-03T15:28:32.726Z,8.20
2023-01-03T15:29:45.256Z,8.20
2023-01-03T15:30:50.642Z,8.20
2023-01-03T15:32:00.781Z,8.20
2023-01-03T15:33:23.319Z,8.20
2023-01-03T15:34:39.633Z,8.20
2023-01-03T15:35:44.530Z,8.10
2023-01-03T15:36:53.174Z,8.10
2023-01-03T15:37:56.877Z,8.10
2023-01-03T15:39:01.245Z,8.10